createdAt,value
2023-10-21T00:00:21.139Z,5.97
2023-10-21T00:02:47.833Z,5.91
2023-10-21T00:05:14.570Z,5.82
2023-10-21T00:07:41.188Z,5.57
2023-10-21T00:10:08.486Z,5.96
2023-10-21T00:12:35.579Z,5.76
2023-10-21T00:15:02.587Z,5.80
2023-10-21T00:17:32.120Z,5.96
2023-10-21T00:20:00.694Z,5.52
2023-10-21T00:22:27.830Z,5.40
2023-10-21T00:24:54.558Z,5.33
2023-10-21T00:27:21.200Z,5.02
2023-10-21T00:29:47.819Z,5.23
2023-10-21T00:32:14.373Z,4.82
2023-10-21T00:34:40.993Z,4.71
2023-10-21T00:37:09.223Z,4.81
2023-10-21T00:39:36.089Z,5.08
2023-10-21T00:42:03.209Z,4.61
2023-10-21T00:44:29.867Z,4.76
2023-10-21T00:46:57.443Z,4.71
2023-10-21T00:49:24.590Z,4.79
2023-10-21T00:51:51.305Z,4.63
2023-10-21T00:54:18.525Z,4.58
2023-10-21T00:56:45.327Z,4.77
2023-10-21T00:59:12.880Z,4.92
2023-10-21T01:01:39.599Z,4.93
2023-10-21T01:04:06.703Z,4.85
2023-10-21T01:06:33.948Z,5.05
2023-10-21T01:09:00.637Z,5.07
2023-10-21T01:11:27.274Z,4.73
2023-10-21T01:13:55.618Z,5.31
2023-10-21T01:16:22.650Z,5.21
2023-10-21T01:18:49.318Z,5.11
2023-10-21T01:21:16.014Z,5.14
2023-10-21T01:23:42.761Z,5.07
2023-10-21T01:26:09.489Z,5.08
2023-10-21T01:28:36.131Z,5.31
2023-10-21T01:31:03.533Z,5.24
2023-10-21T01:33:30.580Z,5.08
2023-10-21T01:35:57.314Z,5.17
2023-10-21T01:38:25.779Z,5.27
2023-10-21T01:40:52.466Z,5.76
2023-10-21T01:43:19.042Z,5.45
2023-10-21T01:45:45.690Z,5.63
2023-10-21T01:48:12.654Z,5.83
2023-10-21T01:50:39.670Z,5.38
2023-10-21T01:53:06.442Z,5.63
2023-10-21T01:55:33.216Z,5.52
2023-10-21T01:57:59.835Z,5.73
2023-10-21T02:00:27.022Z,5.41
2023-10-21T02:02:55.411Z,5.68
2023-10-21T02:05:23.437Z,5.65
2023-10-21T02:07:50.692Z,5.75
2023-10-21T02:10:20.553Z,5.84
2023-10-21T02:12:47.394Z,5.99
2023-10-21T02:15:16.535Z,5.84
2023-10-21T02:17:45.829Z,6.05
2023-10-21T02:20:13.998Z,6.24
2023-10-21T02:22:40.833Z,6.11
2023-10-21T02:25:15.948Z,6.28
2023-10-21T02:27:43.358Z,5.93
2023-10-21T02:30:11.775Z,5.98
2023-10-21T02:32:41.491Z,6.13
2023-10-21T02:35:09.617Z,5.90
2023-10-21T02:37:36.511Z,6.12
2023-10-21T02:40:04.966Z,6.09
2023-10-21T02:42:31.671Z,6.04
2023-10-21T02:44:58.595Z,5.94
2023-10-21T02:47:25.804Z,6.28
2023-10-21T02:49:52.505Z,5.73
2023-10-21T02:52:19.646Z,6.46
2023-10-21T02:54:46.189Z,6.44
2023-10-21T02:57:12.785Z,6.17
2023-10-21T02:59:40.046Z,5.98
2023-10-21T03:02:07.447Z,6.14
2023-10-21T03:04:34.824Z,6.06
2023-10-21T03:07:01.374Z,6.14
2023-10-21T03:09:28.085Z,5.84
2023-10-21T03:11:55.256Z,6.15
2023-10-21T03:14:21.944Z,5.91
2023-10-21T03:16:49.796Z,5.70
2023-10-21T03:19:16.626Z,6.09
2023-10-21T03:21:43.176Z,6.10
2023-10-21T03:24:09.847Z,5.76
2023-10-21T03:26:36.480Z,6.03
2023-10-21T03:29:03.230Z,6.31
2023-10-21T03:31:29.856Z,6.05
2023-10-21T03:33:56.498Z,5.92
2023-10-21T03:36:23.123Z,5.68
2023-10-21T03:38:49.741Z,6.23
2023-10-21T03:41:16.616Z,6.02
2023-10-21T03:43:43.211Z,5.86
2023-10-21T03:46:12.234Z,5.96
2023-10-21T03:48:39.173Z,6.16
2023-10-21T03:51:13.040Z,5.93
2023-10-21T03:53:44.615Z,6.03
2023-10-21T03:56:11.383Z,5.83
2023-10-21T03:58:38.472Z,5.77
2023-10-21T04:01:06.316Z,5.96
2023-10-21T04:03:33.909Z,6.16
2023-10-21T04:06:00.833Z,5.79
2023-10-21T04:08:28.915Z,5.39
2023-10-21T04:10:56.006Z,5.82
2023-10-21T04:13:22.926Z,5.54
2023-10-21T04:15:50.809Z,5.79
2023-10-21T04:18:18.874Z,5.80
2023-10-21T04:20:46.226Z,5.27
2023-10-21T04:23:13.626Z,5.66
2023-10-21T04:25:40.619Z,5.71
2023-10-21T04:28:07.833Z,5.58
2023-10-21T04:30:36.175Z,5.66
2023-10-21T04:33:03.376Z,5.66
2023-10-21T04:35:30.372Z,5.04
2023-10-21T04:37:57.425Z,4.83
2023-10-21T04:40:24.012Z,5.28
2023-10-21T04:42:50.642Z,4.96
2023-10-21T04:45:17.393Z,5.45
2023-10-21T04:47:44.962Z,5.48
2023-10-21T04:50:11.860Z,5.18
2023-10-21T04:52:39.910Z,5.47
2023-10-21T04:55:06.832Z,5.45
2023-10-21T04:57:33.560Z,5.26
2023-10-21T05:00:01.093Z,4.89
2023-10-21T05:02:28.021Z,5.24
2023-10-21T05:04:54.781Z,5.37
2023-10-21T05:07:21.440Z,4.86
2023-10-21T05:09:48.158Z,4.92
2023-10-21T05:12:14.849Z,5.05
2023-10-21T05:14:41.583Z,5.09
2023-10-21T05:17:08.381Z,4.98
2023-10-21T05:19:35.105Z,5.07
2023-10-21T05:22:02.161Z,4.93
2023-10-21T05:24:28.846Z,4.94
2023-10-21T05:26:55.656Z,4.76
2023-10-21T05:29:22.389Z,4.78
2023-10-21T05:31:50.421Z,4.58
2023-10-21T05:34:19.840Z,4.67
2023-10-21T05:36:46.898Z,4.92
2023-10-21T05:39:13.993Z,5.04
2023-10-21T05:41:44.227Z,5.04
2023-10-21T05:44:10.944Z,5.00
2023-10-21T05:46:37.789Z,5.04
2023-10-21T05:49:05.379Z,4.71
2023-10-21T05:51:33.183Z,4.83
2023-10-21T05:54:00.286Z,5.00
2023-10-21T05:56:27.051Z,5.45
2023-10-21T05:58:53.724Z,5.12
2023-10-21T06:01:20.419Z,4.91
2023-10-21T06:03:47.306Z,4.97
2023-10-21T06:06:14.457Z,5.19
2023-10-21T06:08:41.492Z,4.96
2023-10-21T06:11:09.642Z,4.80
2023-10-21T06:13:36.469Z,4.68
2023-10-21T06:16:04.014Z,5.09
2023-10-21T06:18:30.903Z,5.13
2023-10-21T06:20:57.625Z,4.93
2023-10-21T06:23:24.935Z,5.07
2023-10-21T06:25:51.690Z,5.11
2023-10-21T06:28:18.450Z,5.00
2023-10-21T06:30:45.133Z,5.19
2023-10-21T06:33:12.721Z,5.33
2023-10-21T06:35:39.602Z,5.27
2023-10-21T06:38:07.223Z,5.21
2023-10-21T06:40:47.115Z,5.15
2023-10-21T06:43:18.986Z,5.05
2023-10-21T06:45:46.253Z,5.26
2023-10-21T06:48:12.969Z,5.35
2023-10-21T06:50:39.661Z,5.38
2023-10-21T06:53:07.242Z,4.90
2023-10-21T06:55:41.986Z,5.01
2023-10-21T06:58:08.641Z,4.88
2023-10-21T07:00:35.327Z,4.97
2023-10-21T07:03:02.171Z,5.09
2023-10-21T07:05:29.111Z,5.30
2023-10-21T07:07:55.832Z,4.61
2023-10-21T07:10:24.500Z,4.53
2023-10-21T07:12:52.593Z,4.40
2023-10-21T07:15:19.251Z,4.09
2023-10-21T07:17:45.849Z,4.19
2023-10-21T07:20:13.113Z,4.25
2023-10-21T07:22:42.785Z,3.86
2023-10-21T07:25:09.461Z,4.13
2023-10-21T07:27:36.720Z,4.45
2023-10-21T07:30:05.357Z,5.42
2023-10-21T07:32:32.017Z,5.39
2023-10-21T07:34:58.841Z,5.06
2023-10-21T07:37:26.312Z,5.09
2023-10-21T07:39:54.038Z,4.94
2023-10-21T07:42:20.921Z,4.73
2023-10-21T07:44:48.818Z,4.43
2023-10-21T07:47:15.417Z,4.35
2023-10-21T07:49:42.094Z,3.60
2023-10-21T07:52:10.740Z,2.97
2023-10-21T07:54:39.206Z,2.47
2023-10-21T07:57:06.742Z,2.35
2023-10-21T07:59:33.330Z,1.81
2023-10-21T08:02:02.285Z,1.61
2023-10-21T08:04:29.457Z,1.83
2023-10-21T08:06:56.923Z,1.55
2023-10-21T08:09:23.948Z,1.46
2023-10-21T08:11:50.678Z,1.24
2023-10-21T08:14:19.311Z,1.14
2023-10-21T08:16:47.316Z,1.29
2023-10-21T08:19:14.139Z,1.40
2023-10-21T08:21:41.982Z,1.18
2023-10-21T08:24:08.946Z,1.18
2023-10-21T08:26:36.105Z,1.21
2023-10-21T08:29:03.997Z,1.26
2023-10-21T08:31:30.972Z,1.41
2023-10-21T08:33:57.601Z,1.41
2023-10-21T08:36:24.381Z,1.28
2023-10-21T08:38:55.165Z,1.04
2023-10-21T08:41:21.964Z,0.90
2023-10-21T08:43:49.591Z,0.91
2023-10-21T08:46:17.498Z,0.81
2023-10-21T08:48:46.534Z,0.78
2023-10-21T08:51:18.055Z,0.91
2023-10-21T08:53:44.949Z,0.80
2023-10-21T08:56:12.400Z,1.25
2023-10-21T08:58:38.988Z,1.22
2023-10-21T09:01:06.992Z,1.50
2023-10-21T09:03:34.068Z,1.29
2023-10-21T09:06:04.901Z,1.02
2023-10-21T09:08:32.704Z,1.03
2023-10-21T09:11:07.180Z,0.85
2023-10-21T09:13:37.274Z,0.92
2023-10-21T09:16:07.761Z,0.86
2023-10-21T09:18:38.992Z,0.83
2023-10-21T09:21:06.504Z,1.03
2023-10-21T09:23:49.649Z,0.82
2023-10-21T09:26:17.505Z,0.84
2023-10-21T09:28:44.065Z,0.83
2023-10-21T09:31:10.629Z,0.75
2023-10-21T09:33:54.657Z,0.75
2023-10-21T09:36:23.173Z,0.72
2023-10-21T09:38:52.179Z,0.65
2023-10-21T09:41:20.661Z,0.73
2023-10-21T09:43:48.697Z,0.74
2023-10-21T09:46:18.838Z,0.72
2023-10-21T09:48:49.617Z,0.77
2023-10-21T09:51:18.676Z,0.77
2023-10-21T09:53:48.670Z,0.83
2023-10-21T09:56:18.518Z,0.84
2023-10-21T09:58:46.198Z,0.82
2023-10-21T10:01:13.692Z,0.94
2023-10-21T10:03:42.758Z,0.87
2023-10-21T10:06:11.036Z,0.79
2023-10-21T10:08:38.603Z,0.95
2023-10-21T10:11:11.814Z,1.08
2023-10-21T10:13:43.375Z,0.89
2023-10-21T10:16:19.536Z,0.91
2023-10-21T10:18:51.243Z,1.02
2023-10-21T10:21:19.468Z,1.05
2023-10-21T10:23:51.265Z,1.48
2023-10-21T10:26:35.153Z,1.20
2023-10-21T10:29:17.160Z,0.98
2023-10-21T10:31:49.710Z,0.88
2023-10-21T10:34:18.675Z,0.81
2023-10-21T10:36:45.581Z,1.22
2023-10-21T10:39:32.198Z,1.70
2023-10-21T10:41:59.484Z,1.77
2023-10-21T10:44:27.572Z,1.45
2023-10-21T10:46:54.700Z,1.04
2023-10-21T10:49:21.772Z,1.12
2023-10-21T10:51:48.320Z,1.25
2023-10-21T10:54:19.402Z,1.14
2023-10-21T10:56:48.262Z,1.16
2023-10-21T10:59:15.607Z,1.15
2023-10-21T11:01:43.323Z,1.11
2023-10-21T11:04:10.150Z,0.83
2023-10-21T11:06:37.980Z,1.06
2023-10-21T11:09:21.619Z,1.06
2023-10-21T11:11:59.280Z,1.18
2023-10-21T11:14:35.698Z,1.17
2023-10-21T11:17:02.809Z,1.32
2023-10-21T11:19:31.077Z,1.24
2023-10-21T11:21:57.715Z,1.28
2023-10-21T11:24:27.382Z,1.47
2023-10-21T11:26:54.818Z,1.44
2023-10-21T11:29:23.552Z,1.16
2023-10-21T11:31:50.363Z,1.52
2023-10-21T11:34:19.238Z,1.39
2023-10-21T11:36:50.284Z,1.68
2023-10-21T11:39:18.386Z,1.47
2023-10-21T11:41:53.951Z,1.48
2023-10-21T11:44:28.101Z,1.56
2023-10-21T11:47:05.255Z,1.34
2023-10-21T11:49:34.209Z,1.38
2023-10-21T11:52:00.996Z,1.55
2023-10-21T11:54:47.896Z,1.59
2023-10-21T11:57:38.046Z,1.57
2023-10-21T12:00:24.402Z,1.76
2023-10-21T12:03:00.299Z,1.92
2023-10-21T12:05:45.689Z,1.67
2023-10-21T12:08:30.933Z,1.80
2023-10-21T12:10:57.560Z,2.07
2023-10-21T12:13:42.800Z,1.83
2023-10-21T12:16:09.433Z,1.89
2023-10-21T12:18:36.143Z,1.79
2023-10-21T12:21:21.445Z,1.82
2023-10-21T12:24:06.512Z,1.98
2023-10-21T12:26:51.903Z,2.17
2023-10-21T12:29:30.960Z,2.30
2023-10-21T12:31:58.263Z,2.04
2023-10-21T12:34:30.648Z,2.32
2023-10-21T12:37:16.006Z,2.39
2023-10-21T12:39:45.287Z,2.20
2023-10-21T12:42:28.197Z,2.41
2023-10-21T12:44:58.811Z,2.43
2023-10-21T12:47:26.186Z,2.75
2023-10-21T12:49:56.794Z,2.30
2023-10-21T12:52:24.636Z,2.51
2023-10-21T12:54:54.390Z,2.68
2023-10-21T12:57:22.264Z,2.52
2023-10-21T12:59:48.966Z,2.12
2023-10-21T13:02:15.685Z,2.12
2023-10-21T13:04:42.374Z,2.00
2023-10-21T13:07:10.252Z,1.86
2023-10-21T13:09:39.145Z,1.69
2023-10-21T13:12:10.764Z,2.12
2023-10-21T13:14:39.737Z,1.90
2023-10-21T13:17:09.431Z,1.88
2023-10-21T13:19:36.645Z,1.97
2023-10-21T13:22:07.550Z,2.10
2023-10-21T13:24:36.241Z,2.05
2023-10-21T13:27:06.054Z,2.55
2023-10-21T13:29:33.340Z,2.40
2023-10-21T13:32:01.089Z,1.97
2023-10-21T13:34:28.390Z,2.81
2023-10-21T13:36:55.153Z,2.59
2023-10-21T13:39:21.939Z,2.99
2023-10-21T13:41:49.102Z,3.06
2023-10-21T13:44:16.287Z,3.55
2023-10-21T13:46:42.920Z,3.26
2023-10-21T13:49:15.549Z,2.70
2023-10-21T13:51:43.290Z,2.97
2023-10-21T13:54:13.957Z,3.19
2023-10-21T13:56:41.100Z,3.23
2023-10-21T13:59:14.661Z,3.27
2023-10-21T14:01:44.917Z,3.87
2023-10-21T14:04:13.524Z,3.76
2023-10-21T14:06:41.682Z,3.62
2023-10-21T14:09:15.427Z,3.72
2023-10-21T14:11:42.452Z,3.83
2023-10-21T14:14:11.354Z,3.54
2023-10-21T14:16:38.300Z,3.81
2023-10-21T14:19:09.549Z,4.13
2023-10-21T14:21:37.090Z,4.11
2023-10-21T14:24:04.223Z,3.89
2023-10-21T14:26:30.977Z,4.17
2023-10-21T14:28:57.649Z,4.29
2023-10-21T14:31:29.257Z,4.27
2023-10-21T14:33:57.237Z,3.24
2023-10-21T14:36:24.212Z,3.96
2023-10-21T14:38:51.350Z,3.99
2023-10-21T14:41:18.223Z,3.83
2023-10-21T14:43:44.944Z,4.05
2023-10-21T14:46:11.682Z,3.70
2023-10-21T14:48:38.585Z,3.76
2023-10-21T14:51:08.224Z,3.85
2023-10-21T14:53:35.652Z,3.78
2023-10-21T14:56:02.359Z,3.37
2023-10-21T14:58:29.100Z,3.39
2023-10-21T15:00:55.974Z,3.16
2023-10-21T15:03:23.845Z,3.00
2023-10-21T15:05:51.614Z,3.17
2023-10-21T15:08:24.664Z,3.49
2023-10-21T15:10:52.485Z,3.16
2023-10-21T15:13:20.385Z,3.24
2023-10-21T15:15:48.170Z,3.23
2023-10-21T15:18:14.988Z,3.19
2023-10-21T15:20:41.643Z,3.45
2023-10-21T15:23:08.360Z,3.59
2023-10-21T15:25:35.037Z,3.03
2023-10-21T15:28:01.861Z,3.13
2023-10-21T15:30:28.721Z,3.10
2023-10-21T15:32:57.602Z,3.47
2023-10-21T15:35:26.225Z,3.66
2023-10-21T15:37:53.347Z,4.00
2023-10-21T15:40:21.771Z,3.22
2023-10-21T15:42:50.610Z,3.09
2023-10-21T15:45:17.456Z,3.25
2023-10-21T15:47:44.583Z,3.11
2023-10-21T15:50:11.581Z,3.30
2023-10-21T15:52:39.157Z,3.24
2023-10-21T15:55:06.916Z,3.28
2023-10-21T15:57:37.920Z,3.23
2023-10-21T16:00:15.329Z,3.25
2023-10-21T16:02:43.127Z,2.74
2023-10-21T16:05:10.027Z,2.86
2023-10-21T16:07:54.070Z,2.98
2023-10-21T16:10:23.268Z,3.15
2023-10-21T16:12:49.915Z,3.12
2023-10-21T16:15:16.868Z,2.85
2023-10-21T16:17:43.660Z,3.26
2023-10-21T16:20:10.547Z,3.71
2023-10-21T16:22:38.741Z,3.05
2023-10-21T16:25:05.942Z,3.50
2023-10-21T16:27:33.210Z,3.12
2023-10-21T16:29:59.860Z,2.59
2023-10-21T16:32:26.500Z,3.24
2023-10-21T16:34:53.498Z,4.59
2023-10-21T16:37:20.209Z,4.36
2023-10-21T16:39:47.026Z,3.22
2023-10-21T16:42:14.481Z,2.69
2023-10-21T16:44:41.302Z,2.26
2023-10-21T16:47:08.024Z,2.11
2023-10-21T16:49:34.974Z,2.55
2023-10-21T16:52:01.731Z,2.45
2023-10-21T16:54:28.487Z,2.22
2023-10-21T16:56:55.934Z,2.65
2023-10-21T16:59:22.644Z,2.36
2023-10-21T17:01:49.472Z,2.48
2023-10-21T17:04:17.040Z,2.50
2023-10-21T17:06:44.109Z,2.31
2023-10-21T17:09:11.255Z,2.25
2023-10-21T17:11:38.433Z,2.91
2023-10-21T17:14:05.601Z,2.87
2023-10-21T17:16:32.920Z,2.57
2023-10-21T17:19:00.266Z,2.43
2023-10-21T17:21:27.310Z,2.43
2023-10-21T17:23:54.855Z,2.62
2023-10-21T17:26:22.825Z,2.44
2023-10-21T17:28:49.730Z,1.97
2023-10-21T17:31:16.595Z,2.65
2023-10-21T17:33:50.195Z,4.54
2023-10-21T17:36:18.563Z,1.97
2023-10-21T17:38:45.553Z,2.40
2023-10-21T17:41:12.322Z,2.03
2023-10-21T17:43:38.984Z,2.75
2023-10-21T17:46:05.985Z,2.72
2023-10-21T17:48:34.180Z,4.86
2023-10-21T17:51:01.108Z,2.20
2023-10-21T17:53:28.918Z,1.96
2023-10-21T17:55:55.832Z,2.36
2023-10-21T17:58:22.469Z,2.52
2023-10-21T18:00:49.209Z,2.50
2023-10-21T18:03:16.158Z,2.80
2023-10-21T18:05:43.175Z,2.60
2023-10-21T18:08:09.884Z,2.29
2023-10-21T18:10:36.534Z,3.40
2023-10-21T18:13:03.252Z,3.58
2023-10-21T18:15:29.880Z,5.04
2023-10-21T18:17:56.605Z,2.94
2023-10-21T18:20:23.314Z,2.74
2023-10-21T18:22:50.069Z,2.24
2023-10-21T18:25:16.810Z,2.12
2023-10-21T18:27:43.443Z,2.21
2023-10-21T18:30:11.388Z,2.43
2023-10-21T18:32:38.515Z,2.45
2023-10-21T18:35:05.581Z,2.67
2023-10-21T18:37:32.204Z,2.66
2023-10-21T18:39:58.997Z,2.29
2023-10-21T18:42:25.939Z,2.70
2023-10-21T18:44:52.761Z,2.25
2023-10-21T18:47:19.404Z,2.27
2023-10-21T18:49:46.133Z,2.02
2023-10-21T18:52:17.256Z,2.31
2023-10-21T18:54:45.524Z,2.07
2023-10-21T18:57:16.292Z,1.94
2023-10-21T18:59:44.251Z,2.13
2023-10-21T19:02:16.857Z,2.46
2023-10-21T19:04:45.657Z,2.71
2023-10-21T19:07:12.693Z,3.37
2023-10-21T19:09:39.531Z,3.87
2023-10-21T19:12:06.326Z,3.07
2023-10-21T19:14:34.725Z,2.45
2023-10-21T19:17:01.598Z,2.39
2023-10-21T19:19:31.528Z,2.63
2023-10-21T19:21:59.452Z,3.09
2023-10-21T19:24:26.149Z,2.84
2023-10-21T19:26:53.051Z,2.10
2023-10-21T19:29:19.726Z,1.95
2023-10-21T19:31:47.799Z,1.94
2023-10-21T19:34:14.538Z,2.31
2023-10-21T19:36:41.695Z,2.55
2023-10-21T19:39:08.354Z,2.75
2023-10-21T19:41:35.018Z,2.52
2023-10-21T19:44:14.435Z,2.93
2023-10-21T19:46:48.585Z,3.30
2023-10-21T19:49:19.288Z,3.00
2023-10-21T19:51:46.473Z,3.19
2023-10-21T19:54:13.282Z,4.42
2023-10-21T19:56:39.930Z,2.84
2023-10-21T19:59:07.102Z,3.62
2023-10-21T20:01:34.512Z,3.62
2023-10-21T20:04:01.721Z,4.55
2023-10-21T20:06:29.263Z,2.73
2023-10-21T20:08:55.992Z,3.56
2023-10-21T20:11:22.662Z,3.34
2023-10-21T20:13:49.325Z,3.53
2023-10-21T20:16:16.878Z,2.40
2023-10-21T20:18:46.000Z,2.27
2023-10-21T20:21:13.746Z,2.40
2023-10-21T20:23:43.392Z,3.17
2023-10-21T20:26:11.676Z,3.80
2023-10-21T20:28:42.640Z,7.57
2023-10-21T20:31:10.481Z,4.57
2023-10-21T20:33:37.966Z,5.28
2023-10-21T20:36:06.025Z,6.38
2023-10-21T20:38:33.052Z,5.81
2023-10-21T20:41:08.696Z,8.85
2023-10-21T20:43:35.419Z,5.13
2023-10-21T20:46:02.128Z,5.37
2023-10-21T20:48:28.841Z,4.21
2023-10-21T20:50:55.571Z,2.91
2023-10-21T20:53:24.326Z,2.43
2023-10-21T20:55:51.106Z,3.11
2023-10-21T20:58:17.863Z,2.21
2023-10-21T21:00:44.632Z,2.30
2023-10-21T21:03:11.449Z,3.10
2023-10-21T21:05:38.152Z,3.48
2023-10-21T21:08:05.593Z,5.47
2023-10-21T21:10:33.278Z,4.34
2023-10-21T21:13:01.576Z,3.52
2023-10-21T21:15:29.187Z,4.05
2023-10-21T21:17:56.097Z,3.80
2023-10-21T21:20:22.813Z,3.66
2023-10-21T21:22:49.495Z,4.02
2023-10-21T21:25:16.272Z,2.90
2023-10-21T21:27:43.245Z,2.84
2023-10-21T21:30:10.401Z,3.69
2023-10-21T21:32:37.459Z,2.39
2023-10-21T21:35:04.347Z,3.52
2023-10-21T21:37:31.868Z,5.66
2023-10-21T21:39:59.217Z,3.44
2023-10-21T21:42:26.981Z,3.20
2023-10-21T21:44:54.504Z,5.92
2023-10-21T21:47:21.237Z,8.19
2023-10-21T21:49:47.958Z,4.07
2023-10-21T21:52:14.662Z,3.18
2023-10-21T21:54:43.622Z,2.06
2023-10-21T21:57:10.618Z,1.68
2023-10-21T21:59:37.489Z,1.45
2023-10-21T22:02:04.300Z,1.43
2023-10-21T22:04:31.145Z,1.71
2023-10-21T22:07:00.753Z,1.87
2023-10-21T22:09:28.996Z,1.98
2023-10-21T22:11:55.694Z,1.72
2023-10-21T22:14:22.406Z,1.54
2023-10-21T22:16:49.939Z,1.64
2023-10-21T22:19:17.873Z,1.68
2023-10-21T22:21:48.971Z,1.72
2023-10-21T22:24:16.081Z,1.80
2023-10-21T22:26:47.706Z,2.46
2023-10-21T22:29:15.702Z,2.30
2023-10-21T22:31:42.757Z,2.37
2023-10-21T22:34:09.481Z,1.90
2023-10-21T22:36:36.140Z,1.94
2023-10-21T22:39:04.688Z,1.69
2023-10-21T22:41:31.368Z,1.52
2023-10-21T22:43:59.518Z,1.27
2023-10-21T22:46:26.237Z,2.45
2023-10-21T22:48:52.943Z,1.28
2023-10-21T22:51:19.646Z,0.95
2023-10-21T22:53:46.475Z,1.04
2023-10-21T22:56:13.112Z,1.24
2023-10-21T22:58:39.796Z,1.51
2023-10-21T23:01:10.738Z,0.96
2023-10-21T23:03:37.585Z,1.01
2023-10-21T23:06:06.842Z,1.63
2023-10-21T23:08:44.491Z,1.47
2023-10-21T23:11:11.266Z,1.28
2023-10-21T23:13:38.044Z,0.86
2023-10-21T23:16:04.836Z,0.88
2023-10-21T23:18:31.978Z,0.89
2023-10-21T23:20:58.771Z,0.82
2023-10-21T23:23:25.514Z,0.84
2023-10-21T23:25:52.200Z,0.82
2023-10-21T23:28:18.838Z,0.98
2023-10-21T23:30:45.463Z,0.90
2023-10-21T23:33:12.245Z,0.91
2023-10-21T23:35:39.961Z,1.05
2023-10-21T23:38:06.686Z,0.90
2023-10-21T23:40:34.161Z,0.88
2023-10-21T23:43:02.817Z,0.78
2023-10-21T23:45:29.660Z,1.00
2023-10-21T23:47:56.592Z,1.02
2023-10-21T23:50:24.021Z,1.12
2023-10-21T23:52:55.297Z,1.04
2023-10-21T23:55:22.209Z,1.09
2023-10-21T23:57:49.178Z,1.16
